Time;durP1;ratioP1;P1;durP2;ratioP2;P2;SDS_P1;SDS_P2;PMS_P1;PMS_P2;Temp;Humidity;BMP_temperature;BMP_pressure;BME280_temperature;BME280_humidity;BME280_pressure;Samples;Min_cycle;Max_cycle;Signal;HPM_P1;HPM_P2
2021/12/05 00:18:31;;;;;;;0.80;0.80;;;;;;;2.40;100.00;99309.09;5027776;28;20428;-86
2021/12/05 00:23:44;;;;;;;4.10;3.90;;;;;;;2.43;100.00;99325.34;5061031;28;20481;-85
2021/12/05 00:26:16;;;;;;;0.40;0.30;;;;;;;2.44;100.00;99326.19;5060318;28;20427;-85
2021/12/05 00:29:09;;;;;;;17.73;16.80;;;;;;;2.40;100.00;99328.59;5060280;28;20434;-85
2021/12/05 00:43:27;;;;;;;0.40;0.30;;;;;;;2.07;100.00;99338.16;5055230;28;20496;-84
2021/12/05 00:46:14;;;;;;;0.40;0.30;;;;;;;2.00;100.00;99341.13;5059838;28;20442;-85
2021/12/05 00:49:10;;;;;;;0.97;0.97;;;;;;;1.98;100.00;99337.13;5058744;28;20847;-83
2021/12/05 01:00:28;;;;;;;0.40;0.30;;;;;;;1.92;100.00;99335.56;4996539;28;21073;-82
2021/12/05 01:06:19;;;;;;;0.40;0.30;;;;;;;1.89;100.00;99339.56;5048123;28;20449;-83
2021/12/05 01:09:02;;;;;;;0.40;0.30;;;;;;;1.90;100.00;99343.84;5058137;28;20518;-83
2021/12/05 01:11:49;;;;;;;0.40;0.30;;;;;;;1.92;100.00;99346.25;5058257;28;20466;-82
2021/12/05 01:14:29;;;;;;;0.40;0.30;;;;;;;1.95;100.00;99351.06;5058051;28;20974;-83
2021/12/05 01:16:56;;;;;;;0.40;0.30;;;;;;;2.00;100.00;99353.69;5058842;28;20794;-82
2021/12/05 01:19:25;;;;;;;0.40;0.30;;;;;;;2.02;100.00;99367.56;5057817;28;20442;-82
2021/12/05 01:21:54;;;;;;;0.40;0.40;;;;;;;2.00;100.00;99367.03;5056543;28;20486;-82
2021/12/05 01:24:34;;;;;;;0.40;0.30;;;;;;;1.97;100.00;99371.03;5057396;28;20516;-82
2021/12/05 01:27:09;;;;;;;0.40;0.30;;;;;;;1.96;100.00;99363.31;5057505;28;20521;-82
2021/12/05 01:29:43;;;;;;;0.40;0.30;;;;;;;1.99;100.00;99374.25;5057431;28;20472;-82
2021/12/05 01:32:19;;;;;;;0.40;0.27;;;;;;;2.01;100.00;99365.97;5057410;28;20483;-81
2021/12/05 01:35:00;;;;;;;0.40;0.30;;;;;;;2.00;100.00;99380.41;5056865;28;20427;-82
2021/12/05 01:37:37;;;;;;;0.40;0.30;;;;;;;1.99;100.00;99376.09;5057034;28;20469;-82
2021/12/05 01:43:21;;;;;;;5.20;4.90;;;;;;;1.96;100.00;99352.63;5049264;28;20813;-82
2021/12/05 01:54:20;;;;;;;0.40;0.30;;;;;;;1.97;100.00;99372.91;5056518;28;20489;-82
2021/12/05 01:57:11;;;;;;;0.40;0.30;;;;;;;2.02;100.00;99380.91;5056751;28;20426;-82
2021/12/05 01:59:58;;;;;;;0.40;0.30;;;;;;;2.08;100.00;99393.19;5056307;28;20465;-82
2021/12/05 02:02:51;;;;;;;0.40;0.30;;;;;;;2.15;100.00;99391.00;5056692;28;20461;-85
2021/12/05 02:16:37;;;;;;;3.13;2.93;;;;;;;2.13;100.00;99382.47;5056031;28;20484;-85
2021/12/05 02:30:24;;;;;;;0.40;0.30;;;;;;;2.12;100.00;99385.38;5058186;28;20504;-84
2021/12/05 02:35:53;;;;;;;0.40;0.30;;;;;;;2.03;100.00;99379.81;5059116;28;20451;-85
2021/12/05 02:41:12;;;;;;;0.40;0.30;;;;;;;2.16;100.00;99381.09;5060532;28;20481;-85
2021/12/05 02:43:43;;;;;;;0.40;0.30;;;;;;;2.18;100.00;99382.44;5060168;28;20526;-85
2021/12/05 02:46:13;;;;;;;0.40;0.30;;;;;;;2.02;100.00;99387.03;5060279;28;20939;-85
2021/12/05 02:48:40;;;;;;;0.40;0.30;;;;;;;2.11;100.00;99387.25;5061545;28;20442;-85
2021/12/05 02:51:12;;;;;;;0.40;0.30;;;;;;;2.15;100.00;99403.56;5062703;28;20835;-85
2021/12/05 02:53:45;;;;;;;0.40;0.30;;;;;;;2.13;100.00;99411.84;5063313;28;20431;-85
2021/12/05 02:56:14;;;;;;;0.40;0.30;;;;;;;2.12;100.00;99415.56;5059577;28;20426;-85
2021/12/05 02:58:45;;;;;;;0.40;0.20;;;;;;;2.16;100.00;99413.16;5055846;28;20453;-85
2021/12/05 03:01:20;;;;;;;0.40;0.30;;;;;;;2.17;100.00;99407.56;5055196;28;20536;-85
2021/12/05 03:03:47;;;;;;;0.40;0.30;;;;;;;2.18;100.00;99411.03;5055644;28;20445;-85
2021/12/05 03:06:19;;;;;;;0.40;0.30;;;;;;;2.27;100.00;99415.50;5055377;28;20430;-85
2021/12/05 03:08:51;;;;;;;0.40;0.30;;;;;;;2.26;100.00;99419.25;5055751;28;20438;-85
2021/12/05 03:11:18;;;;;;;0.40;0.30;;;;;;;2.33;100.00;99418.94;5055349;28;20502;-85
2021/12/05 03:13:45;;;;;;;0.40;0.30;;;;;;;2.28;100.00;99430.47;5055444;28;20427;-86
2021/12/05 03:16:14;;;;;;;0.40;0.30;;;;;;;2.37;100.00;99421.88;5056169;28;20446;-86
2021/12/05 03:18:42;;;;;;;0.67;0.60;;;;;;;2.38;100.00;99424.25;5056175;28;20431;-85
2021/12/05 03:21:09;;;;;;;0.40;0.40;;;;;;;2.28;100.00;99430.47;5056669;28;20486;-81
2021/12/05 03:23:37;;;;;;;0.40;0.30;;;;;;;2.28;100.00;99432.34;5055413;28;20433;-84
2021/12/05 03:26:07;;;;;;;0.40;0.30;;;;;;;2.24;100.00;99433.97;5054521;28;20434;-82
2021/12/05 03:28:34;;;;;;;0.40;0.30;;;;;;;2.18;100.00;99435.84;5054965;28;20458;-86
2021/12/05 03:31:02;;;;;;;0.40;0.30;;;;;;;2.02;100.00;99429.75;5055014;28;20465;-85
2021/12/05 03:33:28;;;;;;;0.40;0.30;;;;;;;2.11;100.00;99434.53;5054714;28;20492;-83
2021/12/05 03:35:55;;;;;;;1.40;1.30;;;;;;;2.12;100.00;99438.81;5054513;28;20453;-84
2021/12/05 03:38:21;;;;;;;0.40;0.30;;;;;;;2.13;100.00;99443.91;5055432;28;20802;-83
2021/12/05 03:40:48;;;;;;;0.40;0.30;;;;;;;2.11;100.00;99442.56;5055782;28;20516;-85
2021/12/05 03:43:23;;;;;;;0.40;0.30;;;;;;;2.05;100.00;99444.47;5054487;28;20476;-85
2021/12/05 03:45:53;;;;;;;1.67;1.53;;;;;;;2.01;100.00;99448.75;5054521;28;20426;-85
2021/12/05 03:48:22;;;;;;;1.67;1.57;;;;;;;2.10;100.00;99465.81;5054910;28;20787;-83
2021/12/05 03:50:49;;;;;;;0.40;0.30;;;;;;;2.16;100.00;99472.72;5056127;28;20455;-85
2021/12/05 03:53:18;;;;;;;0.40;0.30;;;;;;;2.23;100.00;99473.22;5058196;28;20441;-85
2021/12/05 03:55:48;;;;;;;0.40;0.30;;;;;;;2.35;100.00;99490.84;5057665;28;20434;-83
2021/12/05 03:58:15;;;;;;;0.40;0.30;;;;;;;2.40;100.00;99498.81;5059267;28;20430;-82
2021/12/05 04:00:47;;;;;;;0.40;0.30;;;;;;;2.37;100.00;99500.16;5058451;28;20481;-84
2021/12/05 04:03:17;;;;;;;0.40;0.30;;;;;;;2.43;100.00;99500.94;5058005;28;20419;-84
2021/12/05 04:05:44;;;;;;;0.40;0.20;;;;;;;2.33;100.00;99500.97;5058161;28;20817;-84
2021/12/05 04:08:14;;;;;;;0.40;0.30;;;;;;;2.35;100.00;99512.22;5058110;28;20438;-84
2021/12/05 04:10:43;;;;;;;5.07;4.67;;;;;;;2.31;100.00;99509.28;5057953;28;20466;-84
2021/12/05 04:13:10;;;;;;;0.40;0.30;;;;;;;2.27;100.00;99505.53;5057452;28;20500;-82
2021/12/05 04:15:38;;;;;;;0.40;0.30;;;;;;;2.20;100.00;99503.16;5057341;28;20453;-82
2021/12/05 04:18:06;;;;;;;1.83;1.73;;;;;;;2.21;100.00;99499.44;5057142;28;20430;-82
2021/12/05 04:20:33;;;;;;;0.40;0.30;;;;;;;2.14;100.00;99514.94;5056977;28;20450;-82
2021/12/05 04:22:59;;;;;;;0.40;0.20;;;;;;;2.15;100.00;99502.38;5056964;28;20434;-82
2021/12/05 04:25:26;;;;;;;0.40;0.30;;;;;;;2.17;100.00;99513.56;5057514;28;20434;-85
2021/12/05 04:27:55;;;;;;;0.40;0.30;;;;;;;2.11;100.00;99498.66;5057504;28;20502;-86
2021/12/05 04:30:25;;;;;;;0.40;0.20;;;;;;;2.15;100.00;99505.03;5058181;28;20451;-85
2021/12/05 04:32:53;;;;;;;4.37;4.10;;;;;;;2.23;100.00;99507.16;5058753;28;20442;-85
2021/12/05 04:35:21;;;;;;;5.43;5.13;;;;;;;2.19;100.00;99509.56;5058776;28;20453;-86
2021/12/05 04:37:48;;;;;;;0.40;0.30;;;;;;;2.26;100.00;99517.31;5058061;28;20977;-84
2021/12/05 04:40:15;;;;;;;0.40;0.30;;;;;;;2.28;100.00;99507.94;5058771;28;20469;-83
2021/12/05 04:42:42;;;;;;;0.40;0.20;;;;;;;2.32;100.00;99510.06;5059244;28;20507;-86
2021/12/05 04:45:13;;;;;;;0.40;0.30;;;;;;;2.30;100.00;99512.19;5057786;28;20525;-83
2021/12/05 04:47:40;;;;;;;0.40;0.20;;;;;;;2.39;100.00;99515.91;5058536;28;20419;-85
2021/12/05 04:50:07;;;;;;;0.40;0.30;;;;;;;2.33;100.00;99517.00;5059267;28;20474;-82
2021/12/05 04:52:36;;;;;;;4.00;3.80;;;;;;;2.37;100.00;99507.38;5059175;28;20453;-82
2021/12/05 04:55:03;;;;;;;0.40;0.30;;;;;;;2.34;100.00;99510.59;5057878;28;20813;-82
2021/12/05 04:57:29;;;;;;;0.40;0.30;;;;;;;2.45;100.00;99510.28;5057953;28;20954;-82
2021/12/05 04:59:56;;;;;;;0.40;0.30;;;;;;;2.46;100.00;99511.06;5057790;28;20454;-82
2021/12/05 05:02:23;;;;;;;0.40;0.27;;;;;;;2.42;100.00;99502.00;5057451;28;20485;-82
2021/12/05 05:04:50;;;;;;;0.40;0.30;;;;;;;2.44;100.00;99508.69;5057863;28;20450;-82
2021/12/05 05:07:22;;;;;;;0.40;0.30;;;;;;;2.29;100.00;99508.72;5057923;28;20955;-82
2021/12/05 05:09:52;;;;;;;14.50;13.30;;;;;;;2.27;100.00;99511.69;5058551;28;20446;-87
2021/12/05 05:12:19;;;;;;;0.40;0.30;;;;;;;2.31;100.00;99524.50;5058025;28;20848;-87
2021/12/05 05:14:46;;;;;;;0.40;0.20;;;;;;;2.28;100.00;99520.50;5057093;28;20450;-85
2021/12/05 05:17:14;;;;;;;1.07;0.97;;;;;;;2.26;100.00;99528.78;5058270;28;20473;-83
2021/12/05 05:19:45;;;;;;;0.40;0.30;;;;;;;2.25;100.00;99527.19;5057563;28;20472;-86
2021/12/05 05:22:22;;;;;;;0.40;0.30;;;;;;;2.24;100.00;99522.09;5059135;28;20556;-83
2021/12/05 05:25:19;;;;;;;0.40;0.30;;;;;;;2.14;100.00;99528.28;5058066;28;20437;-82
2021/12/05 05:28:05;;;;;;;0.40;0.30;;;;;;;2.31;100.00;99540.53;5057582;28;20781;-86
2021/12/05 05:39:07;;;;;;;0.40;0.30;;;;;;;2.41;100.00;99551.19;5056987;28;20462;-86
2021/12/05 05:47:59;;;;;;;0.40;0.20;;;;;;;2.34;100.00;99570.16;5023660;28;20796;-84
2021/12/05 05:50:26;;;;;;;0.40;0.30;;;;;;;2.37;100.00;99574.97;5057444;28;20828;-83
2021/12/05 05:52:53;;;;;;;0.40;0.20;;;;;;;2.40;100.00;99577.13;5057226;28;20951;-84
2021/12/05 05:55:20;;;;;;;3.20;3.00;;;;;;;2.31;100.00;99567.25;5057068;28;20446;-84
2021/12/05 05:57:58;;;;;;;0.40;0.30;;;;;;;2.22;100.00;99575.81;5057975;28;20454;-84
2021/12/05 06:00:32;;;;;;;0.40;0.30;;;;;;;2.25;100.00;99582.47;5056306;28;20967;-88
2021/12/05 06:05:43;;;;;;;0.40;0.20;;;;;;;2.39;100.00;99580.03;5054894;28;20433;-88
2021/12/05 06:08:10;;;;;;;0.40;0.30;;;;;;;2.42;100.00;99579.50;5054814;28;20422;-88
2021/12/05 06:10:37;;;;;;;0.40;0.20;;;;;;;2.31;100.00;99575.28;5054997;28;20522;-84
2021/12/05 06:13:05;;;;;;;0.87;0.87;;;;;;;2.38;100.00;99586.47;5056249;28;20443;-88
2021/12/05 06:15:31;;;;;;;0.40;0.30;;;;;;;2.36;100.00;99599.31;5053865;28;20458;-88
2021/12/05 06:17:58;;;;;;;0.70;0.70;;;;;;;2.34;100.00;99588.88;5054617;28;20431;-88
2021/12/05 06:20:28;;;;;;;0.40;0.30;;;;;;;2.36;100.00;99586.75;5055914;28;20513;-88
2021/12/05 06:22:55;;;;;;;0.40;0.30;;;;;;;2.24;100.00;99597.72;5055698;28;20482;-84
2021/12/05 06:25:25;;;;;;;0.40;0.30;;;;;;;2.28;100.00;99592.63;5056019;28;20439;-88
2021/12/05 06:27:54;;;;;;;0.40;0.30;;;;;;;2.25;100.00;99607.31;5054838;28;20954;-88
2021/12/05 06:30:32;;;;;;;0.40;0.30;;;;;;;2.22;100.00;99599.88;5055237;28;20558;-88
2021/12/05 06:41:17;;;;;;;0.40;0.30;;;;;;;2.12;100.00;99629.25;5050986;28;20450;-88
2021/12/05 06:46:44;;;;;;;0.40;0.30;;;;;;;2.18;100.00;99628.19;4993980;28;20587;-85
2021/12/05 06:49:11;;;;;;;0.60;0.40;;;;;;;2.15;100.00;99635.94;4993025;28;20460;-89
2021/12/05 06:51:38;;;;;;;0.40;0.30;;;;;;;2.17;100.00;99647.97;5020143;28;20454;-87
2021/12/05 06:54:04;;;;;;;1.43;1.33;;;;;;;2.22;100.00;99639.94;5054264;28;20450;-86
2021/12/05 06:56:31;;;;;;;0.40;0.30;;;;;;;2.30;100.00;99648.47;5054540;28;20481;-87
2021/12/05 06:58:58;;;;;;;0.40;0.30;;;;;;;2.34;100.00;99646.84;5055954;28;20478;-87
2021/12/05 07:01:24;;;;;;;0.40;0.30;;;;;;;2.31;100.00;99658.91;5054053;28;20474;-88
2021/12/05 07:03:52;;;;;;;0.40;0.30;;;;;;;2.30;100.00;99667.16;5060602;28;20801;-88
2021/12/05 07:06:23;;;;;;;0.40;0.30;;;;;;;2.31;100.00;99671.47;5054035;28;20529;-87
2021/12/05 07:08:52;;;;;;;0.40;0.30;;;;;;;2.34;100.00;99674.38;5055117;28;20445;-84
2021/12/05 07:11:23;;;;;;;0.40;0.30;;;;;;;2.29;100.00;99674.38;5055887;28;20861;-87
2021/12/05 07:16:38;;;;;;;0.40;0.20;;;;;;;2.31;100.00;99692.84;5056457;28;20512;-86
2021/12/05 07:19:23;;;;;;;0.40;0.30;;;;;;;2.28;100.00;99697.63;5056283;28;20521;-86
2021/12/05 07:21:53;;;;;;;0.40;0.20;;;;;;;2.21;100.00;99707.78;5057160;28;20524;-83
2021/12/05 07:24:41;;;;;;;0.40;0.37;;;;;;;2.24;100.00;99709.13;5059476;28;20434;-83
2021/12/05 07:40:20;;;;;;;0.40;0.30;;;;;;;2.23;100.00;99702.19;5061134;28;20426;-83
2021/12/05 07:40:55;;;;;;;2.13;2.03;;;;;;;2.27;100.00;99730.75;5060240;28;20504;-86
2021/12/05 07:43:22;;;;;;;0.40;0.30;;;;;;;2.28;100.00;99736.91;5060381;28;20531;-86
2021/12/05 07:45:54;;;;;;;2.97;2.83;;;;;;;2.28;100.00;99740.38;5060831;28;20447;-85
2021/12/05 07:48:26;;;;;;;0.40;0.30;;;;;;;2.32;100.00;99750.53;5060564;28;20458;-86
2021/12/05 07:51:08;;;;;;;0.40;0.30;;;;;;;2.38;100.00;99757.47;5060775;28;20474;-85
2021/12/05 07:53:43;;;;;;;0.40;0.30;;;;;;;2.43;100.00;99762.81;5060549;28;20434;-86
2021/12/05 07:56:15;;;;;;;0.40;0.30;;;;;;;2.39;100.00;99761.75;5060400;28;20426;-83
2021/12/05 07:58:57;;;;;;;0.40;0.30;;;;;;;2.42;100.00;99762.00;5062803;28;20791;-82
2021/12/05 08:15:15;;;;;;;0.40;0.30;;;;;;;2.46;100.00;99772.97;5059625;28;20509;-84
2021/12/05 08:17:49;;;;;;;0.40;0.30;;;;;;;2.45;100.00;99772.19;5060207;28;20435;-84
2021/12/05 08:20:16;;;;;;;0.40;0.30;;;;;;;2.41;100.00;99770.31;5058947;28;20982;-84
2021/12/05 08:22:44;;;;;;;151.10;31.90;;;;;;;2.42;100.00;99772.72;5057814;28;21002;-83
2021/12/05 08:25:11;;;;;;;0.40;0.30;;;;;;;2.39;100.00;99781.28;5057782;28;20442;-82
2021/12/05 08:27:41;;;;;;;0.40;0.30;;;;;;;2.34;100.00;99775.09;5057827;28;20885;-85
2021/12/05 08:30:12;;;;;;;14.70;13.80;;;;;;;2.36;100.00;99779.13;5058882;28;20490;-86
2021/12/05 08:32:53;;;;;;;0.40;0.30;;;;;;;2.39;100.00;99775.94;5059378;28;20431;-83
2021/12/05 08:35:39;;;;;;;0.40;0.30;;;;;;;2.47;100.00;99779.91;5059102;28;20807;-82
2021/12/05 08:41:44;;;;;;;0.40;0.30;;;;;;;2.53;100.00;99784.22;5059706;28;20529;-84
2021/12/05 08:44:40;;;;;;;253.20;28.37;;;;;;;2.56;100.00;99785.53;5060850;28;20434;-85
2021/12/05 09:26:18;;;;;;;0.80;0.80;;;;;;;2.97;100.00;99837.94;5040300;28;20442;-82
2021/12/05 09:29:15;;;;;;;0.40;0.30;;;;;;;3.10;100.00;99849.97;5057955;28;20813;-83
2021/12/05 09:40:28;;;;;;;0.40;0.30;;;;;;;2.96;100.00;99868.41;5015673;28;20587;-82
2021/12/05 10:02:50;;;;;;;0.70;0.70;;;;;;;2.71;100.00;99877.25;5056647;28;20485;-82
2021/12/05 10:10:54;;;;;;;2.30;2.20;;;;;;;2.68;100.00;99872.44;5054305;28;20556;-83
2021/12/05 10:13:25;;;;;;;0.40;0.30;;;;;;;2.77;100.00;99873.50;5056396;28;20438;-83
2021/12/05 10:16:07;;;;;;;0.40;0.20;;;;;;;2.82;100.00;99885.28;5056519;28;20441;-82
2021/12/05 10:36:02;;;;;;;0.40;0.30;;;;;;;2.98;100.00;99893.03;5056019;28;20456;-82
2021/12/05 10:38:33;;;;;;;0.40;0.23;;;;;;;2.97;100.00;99901.34;5056671;28;20435;-82
2021/12/05 10:41:18;;;;;;;0.50;0.40;;;;;;;3.00;100.00;99896.22;5056412;28;20465;-82
2021/12/05 10:43:47;;;;;;;11.10;10.43;;;;;;;3.06;100.00;99897.06;5056758;28;20477;-82
2021/12/05 10:46:16;;;;;;;0.40;0.20;;;;;;;3.11;100.00;99894.38;5057120;28;20451;-83
2021/12/05 10:48:47;;;;;;;0.40;0.30;;;;;;;3.17;100.00;99890.63;5056966;28;20845;-83
2021/12/05 10:51:17;;;;;;;1.43;1.33;;;;;;;3.19;100.00;99893.84;5057975;28;20465;-83
2021/12/05 10:53:49;;;;;;;0.40;0.30;;;;;;;3.29;100.00;99901.06;5058728;28;20448;-82
2021/12/05 10:56:20;;;;;;;0.40;0.30;;;;;;;3.34;100.00;99894.88;5058674;28;20415;-83
2021/12/05 10:58:51;;;;;;;0.40;0.30;;;;;;;3.31;100.00;99898.88;5057782;28;20469;-82
2021/12/05 11:01:25;;;;;;;0.40;0.30;;;;;;;3.28;100.00;99896.78;5056007;28;20462;-83
2021/12/05 11:03:54;;;;;;;0.40;0.30;;;;;;;3.33;100.00;99904.00;5057411;28;20545;-82
2021/12/05 11:06:41;;;;;;;0.40;0.30;;;;;;;3.31;100.00;99908.78;5056489;28;20434;-82
2021/12/05 11:09:13;;;;;;;0.40;0.30;;;;;;;3.26;100.00;99915.75;5056380;28;20443;-82
2021/12/05 11:11:46;;;;;;;0.40;0.37;;;;;;;3.24;100.00;99907.22;5056392;28;20807;-82
2021/12/05 11:14:16;;;;;;;0.50;0.40;;;;;;;3.29;100.00;99914.44;5056283;28;20419;-82
2021/12/05 11:16:47;;;;;;;0.40;0.30;;;;;;;3.31;100.00;99912.28;5056479;28;20444;-82
2021/12/05 11:19:41;;;;;;;0.70;0.70;;;;;;;3.36;100.00;99922.97;5058897;28;20482;-85
2021/12/05 11:22:19;;;;;;;0.40;0.30;;;;;;;3.34;100.00;99924.31;5056956;28;20466;-85
2021/12/05 11:24:52;;;;;;;0.40;0.30;;;;;;;3.34;100.00;99929.69;5061710;28;20469;-84
2021/12/05 11:27:30;;;;;;;0.40;0.30;;;;;;;3.28;100.00;99932.38;5061473;28;20442;-85
2021/12/05 11:30:17;;;;;;;0.40;0.30;;;;;;;3.26;100.00;99925.66;5061799;28;20422;-85
2021/12/05 11:33:12;;;;;;;0.40;0.30;;;;;;;3.23;100.00;99923.50;5060766;28;20446;-85
2021/12/05 11:35:44;;;;;;;0.40;0.40;;;;;;;3.17;100.00;99930.75;5060422;28;20477;-84
2021/12/05 11:38:22;;;;;;;0.40;0.30;;;;;;;3.17;100.00;99933.41;5058333;28;20438;-84
2021/12/05 11:40:52;;;;;;;0.40;0.30;;;;;;;3.20;100.00;99940.94;5058917;28;20489;-85
2021/12/05 11:43:22;;;;;;;0.57;0.57;;;;;;;3.19;100.00;99942.00;5057189;28;20488;-85
2021/12/05 11:45:55;;;;;;;0.93;0.93;;;;;;;3.13;100.00;99934.22;5058671;28;20869;-84
2021/12/05 11:48:25;;;;;;;0.40;0.30;;;;;;;3.06;100.00;99934.50;5058604;28;20480;-84
2021/12/05 11:50:52;;;;;;;0.40;0.30;;;;;;;3.06;100.00;99947.88;5059192;28;20454;-85
2021/12/05 11:53:43;;;;;;;0.40;0.30;;;;;;;3.01;100.00;99937.97;5058292;28;20537;-84
2021/12/05 11:56:17;;;;;;;0.40;0.20;;;;;;;2.96;100.00;99939.84;5057221;28;20490;-85
2021/12/05 11:58:44;;;;;;;0.40;0.30;;;;;;;2.86;100.00;99929.13;5058350;28;20517;-83
2021/12/05 12:01:13;;;;;;;0.87;0.87;;;;;;;2.91;100.00;99929.94;5058485;28;20967;-83
2021/12/05 12:03:41;;;;;;;0.93;0.93;;;;;;;2.97;100.00;99949.50;5059931;28;20482;-84
2021/12/05 12:06:09;;;;;;;0.40;0.30;;;;;;;2.99;100.00;99947.34;5056597;28;20434;-85
2021/12/05 12:08:36;;;;;;;0.40;0.20;;;;;;;2.96;100.00;99942.50;5056681;28;20476;-84
2021/12/05 12:11:05;;;;;;;0.40;0.30;;;;;;;2.91;100.00;99945.19;5056604;28;20549;-85
2021/12/05 12:13:35;;;;;;;11.73;10.90;;;;;;;2.93;100.00;99938.50;5058879;28;20544;-84
2021/12/05 12:16:07;;;;;;;0.40;0.30;;;;;;;2.93;100.00;99945.72;5059646;28;20437;-84
2021/12/05 12:18:38;;;;;;;1.33;1.33;;;;;;;2.94;100.00;99950.00;5060386;28;20437;-85
2021/12/05 12:21:11;;;;;;;0.50;0.40;;;;;;;2.94;100.00;99940.09;5059316;28;20470;-84
2021/12/05 12:23:41;;;;;;;2.77;2.40;;;;;;;2.91;100.00;99942.50;5062731;28;20468;-84
2021/12/05 12:26:11;;;;;;;0.40;0.30;;;;;;;2.81;100.00;99945.97;5065281;28;20457;-84
2021/12/05 12:28:38;;;;;;;0.40;0.40;;;;;;;2.78;100.00;99943.81;5066560;28;20445;-83
2021/12/05 12:31:11;;;;;;;0.40;0.30;;;;;;;2.80;100.00;99952.41;5063680;28;20829;-84
2021/12/05 12:33:46;;;;;;;0.40;0.20;;;;;;;2.87;100.00;99960.16;5063332;28;20804;-85
2021/12/05 12:36:13;;;;;;;0.43;0.30;;;;;;;2.91;100.00;99962.03;5064320;28;20486;-84
2021/12/05 12:38:42;;;;;;;1.23;1.17;;;;;;;2.90;100.00;99962.31;5064566;28;20820;-84
2021/12/05 12:41:17;;;;;;;2.53;2.40;;;;;;;2.77;100.00;99961.75;5062883;28;20465;-80
2021/12/05 12:43:53;;;;;;;8.47;7.93;;;;;;;2.75;100.00;99950.53;5058724;28;20469;-81
2021/12/05 12:46:27;;;;;;;2.20;2.00;;;;;;;2.84;100.00;99958.03;5058971;28;20474;-81
2021/12/05 12:48:57;;;;;;;1.33;1.23;;;;;;;2.89;100.00;99963.38;5058262;28;20965;-82
2021/12/05 12:51:34;;;;;;;12.60;11.30;;;;;;;2.95;100.00;99959.63;5060823;28;20477;-82
2021/12/05 12:54:04;;;;;;;0.40;0.30;;;;;;;2.96;100.00;99951.34;5059612;28;20473;-84
2021/12/05 12:56:32;;;;;;;0.57;0.57;;;;;;;3.04;100.00;99968.72;5059377;28;20469;-83
2021/12/05 12:59:02;;;;;;;0.40;0.27;;;;;;;3.07;100.00;99970.09;5059487;28;20453;-83
2021/12/05 13:02:01;;;;;;;0.40;0.20;;;;;;;3.07;100.00;99976.25;5060986;28;20471;-84
2021/12/05 13:04:57;;;;;;;1.37;1.30;;;;;;;3.10;100.00;99975.72;5061998;28;20536;-85
2021/12/05 13:10:25;;;;;;;0.40;0.30;;;;;;;3.00;100.00;99989.06;5005501;28;20530;-88
2021/12/05 13:12:57;;;;;;;32.03;18.27;;;;;;;3.11;100.00;99990.69;5060509;28;20434;-87
2021/12/05 13:15:33;;;;;;;1.73;1.63;;;;;;;3.09;100.00;99983.97;5058310;28;20802;-87
2021/12/05 13:18:03;;;;;;;0.40;0.20;;;;;;;3.11;100.00;99990.69;5058308;28;20438;-87
2021/12/05 13:20:52;;;;;;;0.40;0.30;;;;;;;3.02;100.00;99989.63;5058676;28;20473;-87
2021/12/05 13:23:21;;;;;;;0.40;0.27;;;;;;;3.00;100.00;99994.41;5057194;28;20569;-86
2021/12/05 13:26:26;;;;;;;0.40;0.30;;;;;;;2.96;100.00;99998.69;5058903;28;20450;-88
2021/12/05 13:28:57;;;;;;;3.87;3.67;;;;;;;2.97;100.00;99993.09;5037760;28;20484;-87
2021/12/05 13:31:50;;;;;;;7.87;7.30;;;;;;;2.94;100.00;100009.66;5057678;28;20471;-86
2021/12/05 13:34:43;;;;;;;0.40;0.30;;;;;;;3.02;100.00;100013.69;5048082;28;20458;-84
2021/12/05 13:37:44;;;;;;;0.40;0.20;;;;;;;3.08;100.00;100004.59;5058160;28;20422;-83
2021/12/05 13:40:21;;;;;;;0.50;0.40;;;;;;;3.12;100.00;100011.03;4999525;28;20469;-84
2021/12/05 13:42:53;;;;;;;0.40;0.30;;;;;;;3.12;100.00;100005.66;5052038;28;20445;-83
2021/12/05 13:45:35;;;;;;;4.40;3.40;;;;;;;3.16;100.00;100020.13;5058405;28;20435;-84
2021/12/05 13:48:15;;;;;;;11.17;10.40;;;;;;;3.19;100.00;100022.28;5060486;28;20427;-83
2021/12/05 13:50:45;;;;;;;0.40;0.20;;;;;;;3.09;100.00;100024.13;5057901;28;20831;-83
2021/12/05 13:53:26;;;;;;;0.40;0.30;;;;;;;3.05;100.00;100026.50;5058198;28;20423;-83
2021/12/05 13:56:04;;;;;;;0.40;0.30;;;;;;;2.97;100.00;100019.84;5058148;28;20488;-83
2021/12/05 13:58:41;;;;;;;1.03;1.03;;;;;;;2.85;100.00;100029.16;5057855;28;20464;-83
2021/12/05 14:01:14;;;;;;;0.40;0.20;;;;;;;2.82;100.00;100035.81;5058167;28;20493;-83
2021/12/05 14:04:18;;;;;;;0.40;0.20;;;;;;;2.84;100.00;100035.59;5057929;28;20481;-85
2021/12/05 14:06:52;;;;;;;0.40;0.30;;;;;;;2.76;100.00;100051.06;5059435;28;20438;-84
2021/12/05 14:09:22;;;;;;;1.80;1.70;;;;;;;2.68;100.00;100048.09;5058592;28;20430;-83
2021/12/05 14:12:01;;;;;;;0.53;0.53;;;;;;;2.69;100.00;100057.72;5058539;28;20474;-84
2021/12/05 14:14:30;;;;;;;1.37;1.27;;;;;;;2.68;100.00;100054.22;5058193;28;20422;-83
2021/12/05 14:17:00;;;;;;;1.30;1.27;;;;;;;2.66;100.00;100069.75;5058253;28;20817;-84
2021/12/05 14:19:30;;;;;;;0.40;0.30;;;;;;;2.61;100.00;100075.06;5058403;28;20434;-84
2021/12/05 14:21:59;;;;;;;0.40;0.30;;;;;;;2.65;100.00;100078.00;5057143;28;20450;-84
2021/12/05 14:24:28;;;;;;;0.40;0.30;;;;;;;2.65;100.00;100089.50;5057552;28;20497;-83
2021/12/05 14:26:58;;;;;;;1.73;1.63;;;;;;;2.58;100.00;100086.28;5057024;28;20430;-84
2021/12/05 14:29:27;;;;;;;5.43;5.10;;;;;;;2.62;100.00;100092.72;5057474;28;20866;-84
2021/12/05 14:31:57;;;;;;;0.40;0.30;;;;;;;2.64;100.00;100095.91;5059776;28;20462;-83
2021/12/05 14:34:26;;;;;;;5.00;4.73;;;;;;;2.68;100.00;100102.34;5056052;28;20411;-83
2021/12/05 14:36:57;;;;;;;0.40;0.30;;;;;;;2.68;100.00;100115.72;5055713;28;20442;-84
2021/12/05 14:39:27;;;;;;;0.40;0.30;;;;;;;2.68;100.00;100120.28;5056687;28;20450;-83
2021/12/05 14:41:58;;;;;;;2.73;1.70;;;;;;;2.62;100.00;100129.34;5056642;28;20454;-83
2021/12/05 14:44:24;;;;;;;0.40;0.30;;;;;;;2.58;100.00;100133.59;5057032;28;20477;-84
2021/12/05 14:46:57;;;;;;;22.13;9.47;;;;;;;2.63;100.00;100142.44;5057925;28;20449;-84
2021/12/05 14:49:27;;;;;;;0.40;0.30;;;;;;;2.61;100.00;100149.09;5058379;28;20527;-83
2021/12/05 14:51:54;;;;;;;0.40;0.30;;;;;;;2.63;100.00;100152.34;5055935;28;20854;-83
2021/12/05 14:54:26;;;;;;;1.07;0.97;;;;;;;2.66;100.00;100157.19;5056180;28;20509;-84
2021/12/05 14:56:53;;;;;;;0.40;0.30;;;;;;;2.60;100.00;100155.53;5056480;28;20422;-84
2021/12/05 14:59:21;;;;;;;0.40;0.30;;;;;;;2.66;100.00;100151.81;5056276;28;20430;-84
2021/12/05 15:01:54;;;;;;;0.40;0.30;;;;;;;2.64;100.00;100161.97;5056091;28;20453;-84
2021/12/05 15:04:28;;;;;;;2.63;2.53;;;;;;;2.66;100.00;100173.22;5056487;28;20477;-84
2021/12/05 15:06:55;;;;;;;0.40;0.20;;;;;;;2.69;100.00;100168.13;5056637;28;20538;-82
2021/12/05 15:09:26;;;;;;;0.40;0.30;;;;;;;2.70;100.00;100177.78;5056860;28;20438;-83
2021/12/05 15:11:56;;;;;;;2.93;2.73;;;;;;;2.73;100.00;100184.47;5056632;28;20466;-86
2021/12/05 15:14:24;;;;;;;0.40;0.30;;;;;;;2.74;100.00;100178.06;5057973;28;20430;-85
2021/12/05 15:16:53;;;;;;;0.57;0.50;;;;;;;2.75;100.00;100177.81;5057483;28;20442;-85
2021/12/05 15:19:20;;;;;;;0.40;0.30;;;;;;;2.77;100.00;100183.69;5057769;28;20430;-85
2021/12/05 15:21:48;;;;;;;0.40;0.30;;;;;;;2.81;100.00;100185.84;5059190;28;20470;-84
2021/12/05 15:24:17;;;;;;;0.40;0.30;;;;;;;2.82;100.00;100182.13;5058093;28;20482;-85
2021/12/05 15:26:44;;;;;;;0.40;0.30;;;;;;;2.85;100.00;100186.94;5058275;28;20438;-86
2021/12/05 15:29:11;;;;;;;0.40;0.30;;;;;;;2.85;100.00;100195.78;5055681;28;20457;-86
2021/12/05 15:31:43;;;;;;;0.40;0.30;;;;;;;2.82;100.00;100193.63;5056186;28;20469;-86
2021/12/05 15:34:26;;;;;;;0.40;0.30;;;;;;;2.85;100.00;100197.66;5055082;28;20462;-85
2021/12/05 15:37:18;;;;;;;0.40;0.30;;;;;;;2.73;100.00;100195.16;5056287;28;20426;-85
2021/12/05 15:43:27;;;;;;;;;;;;;;;;;;;;;
2021/12/05 15:46:11;;;;;;;0.53;0.53;;;;;;;2.58;100.00;100192.41;5058136;28;20786;-85
2021/12/05 15:48:52;;;;;;;0.40;0.30;;;;;;;2.41;100.00;100192.56;5061981;28;20478;-85
2021/12/05 15:54:50;;;;;;;0.40;0.30;;;;;;;2.49;100.00;100206.25;5058041;28;20446;-85
2021/12/05 15:57:31;;;;;;;0.60;0.60;;;;;;;2.48;100.00;100215.34;5062001;28;20525;-86
2021/12/05 16:00:04;;;;;;;0.40;0.30;;;;;;;2.41;100.00;100211.28;5060348;28;20458;-84
2021/12/05 16:02:47;;;;;;;0.60;0.60;;;;;;;2.43;100.00;100211.81;5061687;28;20438;-86